sensor_id;sensor_type;location;lat;lon;timestamp;temperature;humidity
4985;DHT22;2509;49.902;8.600;2022-08-18T00:00:31;22.60;99.90
4985;DHT22;2509;49.902;8.600;2022-08-18T00:03:33;22.50;99.90
4985;DHT22;2509;49.902;8.600;2022-08-18T00:06:35;22.50;99.90
4985;DHT22;2509;49.902;8.600;2022-08-18T00:09:38;22.50;99.90
4985;DHT22;2509;49.902;8.600;2022-08-18T00:12:41;22.40;99.90
4985;DHT22;2509;49.902;8.600;2022-08-18T00:15:43;22.40;99.90
4985;DHT22;2509;49.902;8.600;2022-08-18T00:18:45;22.40;99.90
4985;DHT22;2509;49.902;8.600;2022-08-18T00:21:47;22.30;99.90
4985;DHT22;2509;49.902;8.600;2022-08-18T00:24:50;22.20;99.90
4985;DHT22;2509;49.902;8.600;2022-08-18T00:27:54;22.00;99.90
4985;DHT22;2509;49.902;8.600;2022-08-18T00:30:56;21.90;99.90
4985;DHT22;2509;49.902;8.600;2022-08-18T00:33:58;21.90;99.90
4985;DHT22;2509;49.902;8.600;2022-08-18T00:36:59;22.00;99.90
4985;DHT22;2509;49.902;8.600;2022-08-18T00:40:02;22.00;99.90
4985;DHT22;2509;49.902;8.600;2022-08-18T00:43:11;22.10;99.90
4985;DHT22;2509;49.902;8.600;2022-08-18T00:46:15;22.20;99.90
4985;DHT22;2509;49.902;8.600;2022-08-18T00:49:17;22.10;99.90
4985;DHT22;2509;49.902;8.600;2022-08-18T00:52:19;22.20;99.90
4985;DHT22;2509;49.902;8.600;2022-08-18T00:55:23;22.20;99.90
4985;DHT22;2509;49.902;8.600;2022-08-18T00:58:29;22.10;99.90
4985;DHT22;2509;49.902;8.600;2022-08-18T01:01:34;22.10;99.90
4985;DHT22;2509;49.902;8.600;2022-08-18T01:04:38;22.20;99.90
4985;DHT22;2509;49.902;8.600;2022-08-18T01:07:44;22.20;99.90
4985;DHT22;2509;49.902;8.600;2022-08-18T01:10:46;22.20;99.90
4985;DHT22;2509;49.902;8.600;2022-08-18T01:13:50;22.30;99.90
4985;DHT22;2509;49.902;8.600;2022-08-18T01:16:53;22.30;99.90
4985;DHT22;2509;49.902;8.600;2022-08-18T01:20:17;22.40;99.90
4985;DHT22;2509;49.902;8.600;2022-08-18T01:23:39;22.30;99.90
4985;DHT22;2509;49.902;8.600;2022-08-18T01:26:43;22.30;99.90
4985;DHT22;2509;49.902;8.600;2022-08-18T01:29:49;22.30;99.90
4985;DHT22;2509;49.902;8.600;2022-08-18T01:32:51;22.40;99.90
4985;DHT22;2509;49.902;8.600;2022-08-18T01:35:53;22.40;99.90
4985;DHT22;2509;49.902;8.600;2022-08-18T01:38:58;22.40;99.90
4985;DHT22;2509;49.902;8.600;2022-08-18T01:42:00;22.40;99.90
4985;DHT22;2509;49.902;8.600;2022-08-18T01:45:05;22.40;99.90
4985;DHT22;2509;49.902;8.600;2022-08-18T01:48:08;22.40;99.90
4985;DHT22;2509;49.902;8.600;2022-08-18T01:51:10;22.40;99.90
4985;DHT22;2509;49.902;8.600;2022-08-18T01:54:14;22.40;99.90
4985;DHT22;2509;49.902;8.600;2022-08-18T01:57:17;22.40;99.90
4985;DHT22;2509;49.902;8.600;2022-08-18T02:00:19;22.40;99.90
4985;DHT22;2509;49.902;8.600;2022-08-18T02:03:22;22.40;99.90
4985;DHT22;2509;49.902;8.600;2022-08-18T02:06:26;22.30;99.90
4985;DHT22;2509;49.902;8.600;2022-08-18T02:09:29;22.30;99.90
4985;DHT22;2509;49.902;8.600;2022-08-18T02:12:31;22.30;99.90
4985;DHT22;2509;49.902;8.600;2022-08-18T02:15:33;22.30;99.90
4985;DHT22;2509;49.902;8.600;2022-08-18T02:18:36;22.30;99.90
4985;DHT22;2509;49.902;8.600;2022-08-18T02:21:38;22.20;99.90
4985;DHT22;2509;49.902;8.600;2022-08-18T02:24:41;22.20;99.90
4985;DHT22;2509;49.902;8.600;2022-08-18T02:27:43;22.20;99.90
4985;DHT22;2509;49.902;8.600;2022-08-18T02:30:46;22.20;99.90
4985;DHT22;2509;49.902;8.600;2022-08-18T02:33:48;22.20;99.90
4985;DHT22;2509;49.902;8.600;2022-08-18T02:36:50;22.20;99.90
4985;DHT22;2509;49.902;8.600;2022-08-18T02:39:53;22.20;99.90
4985;DHT22;2509;49.902;8.600;2022-08-18T02:42:55;22.20;99.90
4985;DHT22;2509;49.902;8.600;2022-08-18T02:45:56;22.10;99.90
4985;DHT22;2509;49.902;8.600;2022-08-18T02:48:58;22.10;99.90
4985;DHT22;2509;49.902;8.600;2022-08-18T02:52:01;22.00;99.90
4985;DHT22;2509;49.902;8.600;2022-08-18T02:55:05;22.00;99.90
4985;DHT22;2509;49.902;8.600;2022-08-18T02:58:07;22.00;99.90
4985;DHT22;2509;49.902;8.600;2022-08-18T03:01:08;22.00;99.90
4985;DHT22;2509;49.902;8.600;2022-08-18T03:04:13;21.90;99.90
4985;DHT22;2509;49.902;8.600;2022-08-18T03:07:15;21.90;99.90
4985;DHT22;2509;49.902;8.600;2022-08-18T03:10:18;21.90;99.90
4985;DHT22;2509;49.902;8.600;2022-08-18T03:13:20;21.90;99.90
4985;DHT22;2509;49.902;8.600;2022-08-18T03:16:22;21.90;99.90
4985;DHT22;2509;49.902;8.600;2022-08-18T03:19:25;21.90;99.90
4985;DHT22;2509;49.902;8.600;2022-08-18T03:22:27;21.80;99.90
4985;DHT22;2509;49.902;8.600;2022-08-18T03:25:31;21.90;99.90
4985;DHT22;2509;49.902;8.600;2022-08-18T03:28:33;21.90;99.90
4985;DHT22;2509;49.902;8.600;2022-08-18T03:31:35;21.80;99.90
4985;DHT22;2509;49.902;8.600;2022-08-18T03:34:38;21.80;99.90
4985;DHT22;2509;49.902;8.600;2022-08-18T03:37:42;21.80;99.90
4985;DHT22;2509;49.902;8.600;2022-08-18T03:40:51;21.80;99.90
4985;DHT22;2509;49.902;8.600;2022-08-18T03:43:53;21.70;99.90
4985;DHT22;2509;49.902;8.600;2022-08-18T03:46:55;21.70;99.90
4985;DHT22;2509;49.902;8.600;2022-08-18T03:49:56;21.70;99.90
4985;DHT22;2509;49.902;8.600;2022-08-18T03:52:58;21.70;99.90
4985;DHT22;2509;49.902;8.600;2022-08-18T03:56:05;21.60;99.90
4985;DHT22;2509;49.902;8.600;2022-08-18T03:59:11;21.70;99.90
4985;DHT22;2509;49.902;8.600;2022-08-18T04:02:13;21.70;99.90
4985;DHT22;2509;49.902;8.600;2022-08-18T04:05:15;21.60;99.90
4985;DHT22;2509;49.902;8.600;2022-08-18T04:08:17;21.60;99.90
4985;DHT22;2509;49.902;8.600;2022-08-18T04:11:20;21.60;99.90
4985;DHT22;2509;49.902;8.600;2022-08-18T04:14:24;21.60;99.90
4985;DHT22;2509;49.902;8.600;2022-08-18T04:17:28;21.60;99.90
4985;DHT22;2509;49.902;8.600;2022-08-18T04:20:30;21.60;99.90
4985;DHT22;2509;49.902;8.600;2022-08-18T04:23:32;21.70;99.90
4985;DHT22;2509;49.902;8.600;2022-08-18T04:26:38;21.70;99.90
4985;DHT22;2509;49.902;8.600;2022-08-18T04:29:40;21.70;99.90
4985;DHT22;2509;49.902;8.600;2022-08-18T04:32:42;21.70;99.90
4985;DHT22;2509;49.902;8.600;2022-08-18T04:35:44;21.70;99.90
4985;DHT22;2509;49.902;8.600;2022-08-18T04:38:46;21.70;99.90
4985;DHT22;2509;49.902;8.600;2022-08-18T04:41:50;21.70;99.90
4985;DHT22;2509;49.902;8.600;2022-08-18T04:44:52;21.70;99.90
4985;DHT22;2509;49.902;8.600;2022-08-18T04:47:54;21.60;99.90
4985;DHT22;2509;49.902;8.600;2022-08-18T04:51:01;21.70;99.90
4985;DHT22;2509;49.902;8.600;2022-08-18T04:54:03;21.70;99.90
4985;DHT22;2509;49.902;8.600;2022-08-18T04:57:10;21.60;99.90
4985;DHT22;2509;49.902;8.600;2022-08-18T05:00:12;21.50;99.90
4985;DHT22;2509;49.902;8.600;2022-08-18T05:03:14;21.40;99.90
4985;DHT22;2509;49.902;8.600;2022-08-18T05:06:16;21.40;99.90
4985;DHT22;2509;49.902;8.600;2022-08-18T05:09:19;21.40;99.90
4985;DHT22;2509;49.902;8.600;2022-08-18T05:12:22;21.30;99.90
4985;DHT22;2509;49.902;8.600;2022-08-18T05:15:24;21.20;99.90
4985;DHT22;2509;49.902;8.600;2022-08-18T05:18:26;21.20;99.90
4985;DHT22;2509;49.902;8.600;2022-08-18T05:21:27;21.20;99.90
4985;DHT22;2509;49.902;8.600;2022-08-18T05:24:30;21.30;99.90
4985;DHT22;2509;49.902;8.600;2022-08-18T05:27:35;21.30;99.90
4985;DHT22;2509;49.902;8.600;2022-08-18T05:30:37;21.40;99.90
4985;DHT22;2509;49.902;8.600;2022-08-18T05:33:40;21.40;99.90
4985;DHT22;2509;49.902;8.600;2022-08-18T05:36:52;21.40;99.90
4985;DHT22;2509;49.902;8.600;2022-08-18T05:40:01;21.40;99.90
4985;DHT22;2509;49.902;8.600;2022-08-18T05:43:06;21.40;99.90
4985;DHT22;2509;49.902;8.600;2022-08-18T05:46:09;21.40;99.90
4985;DHT22;2509;49.902;8.600;2022-08-18T05:49:12;21.50;99.90
4985;DHT22;2509;49.902;8.600;2022-08-18T05:52:17;21.50;99.90
4985;DHT22;2509;49.902;8.600;2022-08-18T05:55:25;21.40;99.90
4985;DHT22;2509;49.902;8.600;2022-08-18T05:58:50;21.40;99.90
4985;DHT22;2509;49.902;8.600;2022-08-18T06:01:59;21.40;99.90
4985;DHT22;2509;49.902;8.600;2022-08-18T06:05:07;21.40;99.90
4985;DHT22;2509;49.902;8.600;2022-08-18T06:08:13;21.30;99.90
4985;DHT22;2509;49.902;8.600;2022-08-18T06:11:15;21.40;99.90
4985;DHT22;2509;49.902;8.600;2022-08-18T06:14:18;21.30;99.90
4985;DHT22;2509;49.902;8.600;2022-08-18T06:17:35;21.30;99.90
4985;DHT22;2509;49.902;8.600;2022-08-18T06:20:51;21.30;99.90
4985;DHT22;2509;49.902;8.600;2022-08-18T06:24:09;21.30;99.90
4985;DHT22;2509;49.902;8.600;2022-08-18T06:27:16;21.40;99.90
4985;DHT22;2509;49.902;8.600;2022-08-18T06:30:28;21.40;99.90
4985;DHT22;2509;49.902;8.600;2022-08-18T06:33:46;21.40;99.90
4985;DHT22;2509;49.902;8.600;2022-08-18T06:36:54;21.30;99.90
4985;DHT22;2509;49.902;8.600;2022-08-18T06:39:59;21.40;99.90
4985;DHT22;2509;49.902;8.600;2022-08-18T06:43:05;21.40;99.90
4985;DHT22;2509;49.902;8.600;2022-08-18T06:46:16;21.40;99.90
4985;DHT22;2509;49.902;8.600;2022-08-18T06:49:27;21.40;99.90
4985;DHT22;2509;49.902;8.600;2022-08-18T06:52:33;21.30;99.90
4985;DHT22;2509;49.902;8.600;2022-08-18T06:55:38;21.40;99.90
4985;DHT22;2509;49.902;8.600;2022-08-18T06:58:39;21.40;99.90
4985;DHT22;2509;49.902;8.600;2022-08-18T07:01:43;21.30;99.90
4985;DHT22;2509;49.902;8.600;2022-08-18T07:05:00;21.40;99.90
4985;DHT22;2509;49.902;8.600;2022-08-18T07:08:16;21.40;99.90
4985;DHT22;2509;49.902;8.600;2022-08-18T07:11:22;21.30;99.90
4985;DHT22;2509;49.902;8.600;2022-08-18T07:14:24;21.30;99.90
4985;DHT22;2509;49.902;8.600;2022-08-18T07:17:31;21.30;99.90
4985;DHT22;2509;49.902;8.600;2022-08-18T07:20:41;21.30;99.90
4985;DHT22;2509;49.902;8.600;2022-08-18T07:23:43;21.30;99.90
4985;DHT22;2509;49.902;8.600;2022-08-18T07:26:59;21.40;99.90
4985;DHT22;2509;49.902;8.600;2022-08-18T07:30:05;21.40;99.90
4985;DHT22;2509;49.902;8.600;2022-08-18T07:33:15;21.30;99.90
4985;DHT22;2509;49.902;8.600;2022-08-18T07:36:19;21.30;99.90
4985;DHT22;2509;49.902;8.600;2022-08-18T07:39:26;21.30;99.90
4985;DHT22;2509;49.902;8.600;2022-08-18T07:42:36;21.20;99.90
4985;DHT22;2509;49.902;8.600;2022-08-18T07:45:43;21.20;99.90
4985;DHT22;2509;49.902;8.600;2022-08-18T07:48:47;21.20;99.90
4985;DHT22;2509;49.902;8.600;2022-08-18T07:51:52;21.20;99.90
4985;DHT22;2509;49.902;8.600;2022-08-18T07:55:05;21.10;99.90
4985;DHT22;2509;49.902;8.600;2022-08-18T07:58:17;20.90;99.90
4985;DHT22;2509;49.902;8.600;2022-08-18T08:01:29;20.70;99.90
4985;DHT22;2509;49.902;8.600;2022-08-18T08:04:40;20.30;99.90
4985;DHT22;2509;49.902;8.600;2022-08-18T08:07:52;20.10;99.90
4985;DHT22;2509;49.902;8.600;2022-08-18T08:11:06;20.10;99.90
4985;DHT22;2509;49.902;8.600;2022-08-18T08:14:25;20.10;99.90
4985;DHT22;2509;49.902;8.600;2022-08-18T08:17:33;20.10;99.90
4985;DHT22;2509;49.902;8.600;2022-08-18T08:20:46;20.10;99.90
4985;DHT22;2509;49.902;8.600;2022-08-18T08:23:54;20.10;99.90
4985;DHT22;2509;49.902;8.600;2022-08-18T08:27:03;20.10;99.90
4985;DHT22;2509;49.902;8.600;2022-08-18T08:30:09;20.10;99.90
4985;DHT22;2509;49.902;8.600;2022-08-18T08:33:18;20.10;99.90
4985;DHT22;2509;49.902;8.600;2022-08-18T08:36:27;20.00;99.90
4985;DHT22;2509;49.902;8.600;2022-08-18T08:39:36;20.10;99.90
4985;DHT22;2509;49.902;8.600;2022-08-18T08:42:41;20.30;99.90
4985;DHT22;2509;49.902;8.600;2022-08-18T08:45:52;20.50;99.90
4985;DHT22;2509;49.902;8.600;2022-08-18T08:49:02;20.60;99.90
4985;DHT22;2509;49.902;8.600;2022-08-18T08:52:13;20.70;99.90
4985;DHT22;2509;49.902;8.600;2022-08-18T08:55:19;20.60;99.90
4985;DHT22;2509;49.902;8.600;2022-08-18T08:58:29;20.50;99.90
4985;DHT22;2509;49.902;8.600;2022-08-18T09:01:37;20.60;99.90
4985;DHT22;2509;49.902;8.600;2022-08-18T09:04:48;20.80;99.90
4985;DHT22;2509;49.902;8.600;2022-08-18T09:08:15;20.90;99.90
4985;DHT22;2509;49.902;8.600;2022-08-18T09:11:46;20.90;99.90
4985;DHT22;2509;49.902;8.600;2022-08-18T09:15:13;21.20;99.90
4985;DHT22;2509;49.902;8.600;2022-08-18T09:18:28;21.30;99.90
4985;DHT22;2509;49.902;8.600;2022-08-18T09:21:39;21.40;99.90
4985;DHT22;2509;49.902;8.600;2022-08-18T09:24:48;21.60;99.90
4985;DHT22;2509;49.902;8.600;2022-08-18T09:28:06;21.80;99.90
4985;DHT22;2509;49.902;8.600;2022-08-18T09:31:16;21.90;99.90
4985;DHT22;2509;49.902;8.600;2022-08-18T09:34:28;22.00;99.90
4985;DHT22;2509;49.902;8.600;2022-08-18T09:37:43;22.00;99.90
4985;DHT22;2509;49.902;8.600;2022-08-18T09:40:49;22.00;99.90
4985;DHT22;2509;49.902;8.600;2022-08-18T09:44:11;21.90;99.90
4985;DHT22;2509;49.902;8.600;2022-08-18T09:48:01;21.90;99.90
4985;DHT22;2509;49.902;8.600;2022-08-18T09:51:33;21.90;99.90
4985;DHT22;2509;49.902;8.600;2022-08-18T09:54:47;21.90;99.90
4985;DHT22;2509;49.902;8.600;2022-08-18T09:58:12;21.80;99.90
4985;DHT22;2509;49.902;8.600;2022-08-18T10:01:20;21.70;99.90
4985;DHT22;2509;49.902;8.600;2022-08-18T10:04:28;21.60;99.90
4985;DHT22;2509;49.902;8.600;2022-08-18T10:07:32;21.70;99.90
4985;DHT22;2509;49.902;8.600;2022-08-18T10:10:38;21.80;99.90
4985;DHT22;2509;49.902;8.600;2022-08-18T10:13:53;21.80;99.90
4985;DHT22;2509;49.902;8.600;2022-08-18T10:17:09;21.90;99.90
4985;DHT22;2509;49.902;8.600;2022-08-18T10:20:22;21.80;99.90
4985;DHT22;2509;49.902;8.600;2022-08-18T10:23:48;21.80;99.90
4985;DHT22;2509;49.902;8.600;2022-08-18T10:27:02;21.80;99.90
4985;DHT22;2509;49.902;8.600;2022-08-18T10:34:04;21.80;99.90
4985;DHT22;2509;49.902;8.600;2022-08-18T10:37:12;21.80;99.90
4985;DHT22;2509;49.902;8.600;2022-08-18T10:40:18;21.80;99.90
4985;DHT22;2509;49.902;8.600;2022-08-18T10:43:29;21.90;99.90
4985;DHT22;2509;49.902;8.600;2022-08-18T10:46:40;22.10;99.90
4985;DHT22;2509;49.902;8.600;2022-08-18T10:49:47;22.20;99.90
4985;DHT22;2509;49.902;8.600;2022-08-18T10:53:00;22.50;99.90
4985;DHT22;2509;49.902;8.600;2022-08-18T10:56:09;22.70;99.90
4985;DHT22;2509;49.902;8.600;2022-08-18T10:59:21;22.90;99.90
4985;DHT22;2509;49.902;8.600;2022-08-18T11:02:48;22.90;99.90
4985;DHT22;2509;49.902;8.600;2022-08-18T11:06:02;23.10;99.90
4985;DHT22;2509;49.902;8.600;2022-08-18T11:09:04;23.40;99.90
4985;DHT22;2509;49.902;8.600;2022-08-18T11:12:06;23.50;99.90
4985;DHT22;2509;49.902;8.600;2022-08-18T11:15:15;23.60;99.90
4985;DHT22;2509;49.902;8.600;2022-08-18T11:18:34;23.70;99.90
4985;DHT22;2509;49.902;8.600;2022-08-18T11:21:40;23.80;99.90
4985;DHT22;2509;49.902;8.600;2022-08-18T11:24:43;24.00;99.90
4985;DHT22;2509;49.902;8.600;2022-08-18T11:27:47;24.20;99.90
4985;DHT22;2509;49.902;8.600;2022-08-18T11:30:51;24.90;99.90
4985;DHT22;2509;49.902;8.600;2022-08-18T11:33:56;25.20;99.90
4985;DHT22;2509;49.902;8.600;2022-08-18T11:37:00;25.60;99.90
4985;DHT22;2509;49.902;8.600;2022-08-18T11:40:08;26.00;99.90
4985;DHT22;2509;49.902;8.600;2022-08-18T11:43:15;26.10;99.90
4985;DHT22;2509;49.902;8.600;2022-08-18T11:46:27;25.90;99.90
4985;DHT22;2509;49.902;8.600;2022-08-18T11:49:32;26.10;99.90
4985;DHT22;2509;49.902;8.600;2022-08-18T11:52:47;26.80;99.90
4985;DHT22;2509;49.902;8.600;2022-08-18T11:56:16;27.60;99.90
4985;DHT22;2509;49.902;8.600;2022-08-18T11:59:31;28.40;99.90
4985;DHT22;2509;49.902;8.600;2022-08-18T12:02:32;29.00;99.90
4985;DHT22;2509;49.902;8.600;2022-08-18T12:05:48;29.10;99.90
4985;DHT22;2509;49.902;8.600;2022-08-18T12:08:56;29.40;99.90
4985;DHT22;2509;49.902;8.600;2022-08-18T12:12:02;29.80;99.90
4985;DHT22;2509;49.902;8.600;2022-08-18T12:15:24;30.10;99.90
4985;DHT22;2509;49.902;8.600;2022-08-18T12:18:27;29.70;99.90
4985;DHT22;2509;49.902;8.600;2022-08-18T12:21:31;29.60;99.90
4985;DHT22;2509;49.902;8.600;2022-08-18T12:24:33;29.80;99.90
4985;DHT22;2509;49.902;8.600;2022-08-18T12:27:35;30.50;99.90
4985;DHT22;2509;49.902;8.600;2022-08-18T12:30:37;31.30;98.50
4985;DHT22;2509;49.902;8.600;2022-08-18T12:33:38;31.80;96.70
4985;DHT22;2509;49.902;8.600;2022-08-18T12:36:42;31.40;94.10
4985;DHT22;2509;49.902;8.600;2022-08-18T12:39:43;31.00;93.60
4985;DHT22;2509;49.902;8.600;2022-08-18T12:42:48;31.10;95.50
4985;DHT22;2509;49.902;8.600;2022-08-18T12:45:50;31.80;94.00
4985;DHT22;2509;49.902;8.600;2022-08-18T12:48:52;31.40;92.20
4985;DHT22;2509;49.902;8.600;2022-08-18T12:51:55;31.30;93.60
4985;DHT22;2509;49.902;8.600;2022-08-18T12:54:57;30.70;93.00
4985;DHT22;2509;49.902;8.600;2022-08-18T12:57:59;30.70;95.80
4985;DHT22;2509;49.902;8.600;2022-08-18T13:01:01;30.60;94.40
4985;DHT22;2509;49.902;8.600;2022-08-18T13:04:04;30.60;95.80
4985;DHT22;2509;49.902;8.600;2022-08-18T13:07:07;30.30;95.90
4985;DHT22;2509;49.902;8.600;2022-08-18T13:10:11;29.40;96.10
4985;DHT22;2509;49.902;8.600;2022-08-18T13:13:14;29.40;97.10
4985;DHT22;2509;49.902;8.600;2022-08-18T13:16:16;29.90;97.20
4985;DHT22;2509;49.902;8.600;2022-08-18T13:19:18;30.00;96.40
4985;DHT22;2509;49.902;8.600;2022-08-18T13:22:22;29.80;97.10
4985;DHT22;2509;49.902;8.600;2022-08-18T13:25:23;30.30;96.00
4985;DHT22;2509;49.902;8.600;2022-08-18T13:28:26;30.20;95.30
4985;DHT22;2509;49.902;8.600;2022-08-18T13:31:29;29.70;94.40
4985;DHT22;2509;49.902;8.600;2022-08-18T13:34:31;29.50;95.80
4985;DHT22;2509;49.902;8.600;2022-08-18T13:37:34;30.00;95.50
4985;DHT22;2509;49.902;8.600;2022-08-18T13:40:36;30.90;94.30
4985;DHT22;2509;49.902;8.600;2022-08-18T13:43:41;31.30;91.60
4985;DHT22;2509;49.902;8.600;2022-08-18T13:46:43;31.40;91.00
4985;DHT22;2509;49.902;8.600;2022-08-18T13:49:46;31.40;89.90
4985;DHT22;2509;49.902;8.600;2022-08-18T13:52:49;31.30;89.00
4985;DHT22;2509;49.902;8.600;2022-08-18T13:55:51;30.90;90.40
4985;DHT22;2509;49.902;8.600;2022-08-18T13:58:53;31.10;91.00
4985;DHT22;2509;49.902;8.600;2022-08-18T14:01:55;31.60;89.60
4985;DHT22;2509;49.902;8.600;2022-08-18T14:04:57;31.70;88.90
4985;DHT22;2509;49.902;8.600;2022-08-18T14:08:00;32.20;89.80
4985;DHT22;2509;49.902;8.600;2022-08-18T14:11:02;32.40;86.20
4985;DHT22;2509;49.902;8.600;2022-08-18T14:14:05;32.50;87.10
4985;DHT22;2509;49.902;8.600;2022-08-18T14:17:06;33.20;86.30
4985;DHT22;2509;49.902;8.600;2022-08-18T14:20:09;34.40;83.80
4985;DHT22;2509;49.902;8.600;2022-08-18T14:23:30;35.20;82.00
4985;DHT22;2509;49.902;8.600;2022-08-18T14:26:49;35.50;80.60
4985;DHT22;2509;49.902;8.600;2022-08-18T14:29:51;35.70;78.50
4985;DHT22;2509;49.902;8.600;2022-08-18T14:32:53;35.20;80.00
4985;DHT22;2509;49.902;8.600;2022-08-18T14:35:55;35.00;79.80
4985;DHT22;2509;49.902;8.600;2022-08-18T14:39:00;34.90;81.00
4985;DHT22;2509;49.902;8.600;2022-08-18T14:42:03;34.80;78.90
4985;DHT22;2509;49.902;8.600;2022-08-18T14:45:06;34.70;80.00
4985;DHT22;2509;49.902;8.600;2022-08-18T14:48:08;35.20;78.80
4985;DHT22;2509;49.902;8.600;2022-08-18T14:51:10;35.00;78.90
4985;DHT22;2509;49.902;8.600;2022-08-18T14:54:13;34.30;81.00
4985;DHT22;2509;49.902;8.600;2022-08-18T14:57:15;34.30;80.30
4985;DHT22;2509;49.902;8.600;2022-08-18T15:00:18;34.40;80.20
4985;DHT22;2509;49.902;8.600;2022-08-18T15:03:20;34.60;80.00
4985;DHT22;2509;49.902;8.600;2022-08-18T15:06:22;34.60;79.80
4985;DHT22;2509;49.902;8.600;2022-08-18T15:09:26;34.70;79.10
4985;DHT22;2509;49.902;8.600;2022-08-18T15:12:29;34.20;78.80
4985;DHT22;2509;49.902;8.600;2022-08-18T15:15:31;33.70;79.70
4985;DHT22;2509;49.902;8.600;2022-08-18T15:18:33;33.70;79.40
4985;DHT22;2509;49.902;8.600;2022-08-18T15:21:34;33.70;79.30
4985;DHT22;2509;49.902;8.600;2022-08-18T15:24:55;33.40;80.70
4985;DHT22;2509;49.902;8.600;2022-08-18T15:28:14;32.80;80.80
4985;DHT22;2509;49.902;8.600;2022-08-18T15:31:17;32.40;82.20
4985;DHT22;2509;49.902;8.600;2022-08-18T15:34:19;32.10;81.50
4985;DHT22;2509;49.902;8.600;2022-08-18T15:37:21;31.80;82.80
4985;DHT22;2509;49.902;8.600;2022-08-18T15:40:25;31.40;83.40
4985;DHT22;2509;49.902;8.600;2022-08-18T15:43:29;30.90;84.70
4985;DHT22;2509;49.902;8.600;2022-08-18T15:46:33;30.30;85.80
4985;DHT22;2509;49.902;8.600;2022-08-18T15:49:35;30.10;86.20
4985;DHT22;2509;49.902;8.600;2022-08-18T15:52:44;30.10;86.30
4985;DHT22;2509;49.902;8.600;2022-08-18T15:55:48;30.10;86.00
4985;DHT22;2509;49.902;8.600;2022-08-18T15:59:07;29.90;85.50
4985;DHT22;2509;49.902;8.600;2022-08-18T16:02:10;29.70;85.30
4985;DHT22;2509;49.902;8.600;2022-08-18T16:05:17;29.70;85.80
4985;DHT22;2509;49.902;8.600;2022-08-18T16:08:34;29.60;86.30
4985;DHT22;2509;49.902;8.600;2022-08-18T16:11:40;29.70;86.60
4985;DHT22;2509;49.902;8.600;2022-08-18T16:14:42;29.50;86.90
4985;DHT22;2509;49.902;8.600;2022-08-18T16:17:47;29.30;87.30
4985;DHT22;2509;49.902;8.600;2022-08-18T16:20:49;29.30;87.70
4985;DHT22;2509;49.902;8.600;2022-08-18T16:23:52;29.30;88.00
4985;DHT22;2509;49.902;8.600;2022-08-18T16:26:56;29.30;87.90
4985;DHT22;2509;49.902;8.600;2022-08-18T16:29:59;29.20;88.30
4985;DHT22;2509;49.902;8.600;2022-08-18T16:33:05;29.10;88.00
4985;DHT22;2509;49.902;8.600;2022-08-18T16:36:15;29.10;88.70
4985;DHT22;2509;49.902;8.600;2022-08-18T16:39:31;28.90;89.00
4985;DHT22;2509;49.902;8.600;2022-08-18T16:42:57;28.70;89.50
4985;DHT22;2509;49.902;8.600;2022-08-18T16:46:03;28.50;90.30
4985;DHT22;2509;49.902;8.600;2022-08-18T16:49:09;28.40;90.50
4985;DHT22;2509;49.902;8.600;2022-08-18T16:52:13;28.20;91.00
4985;DHT22;2509;49.902;8.600;2022-08-18T16:55:16;28.10;91.20
4985;DHT22;2509;49.902;8.600;2022-08-18T16:58:19;28.00;90.90
4985;DHT22;2509;49.902;8.600;2022-08-18T17:01:42;27.90;90.60
4985;DHT22;2509;49.902;8.600;2022-08-18T17:05:02;27.70;91.40
4985;DHT22;2509;49.902;8.600;2022-08-18T17:08:13;27.60;91.70
4985;DHT22;2509;49.902;8.600;2022-08-18T17:11:21;27.50;92.00
4985;DHT22;2509;49.902;8.600;2022-08-18T17:14:29;27.30;92.20
4985;DHT22;2509;49.902;8.600;2022-08-18T17:17:34;27.20;92.70
4985;DHT22;2509;49.902;8.600;2022-08-18T17:20:41;27.10;93.20
4985;DHT22;2509;49.902;8.600;2022-08-18T17:23:48;27.00;93.60
4985;DHT22;2509;49.902;8.600;2022-08-18T17:27:04;26.90;94.40
4985;DHT22;2509;49.902;8.600;2022-08-18T17:30:20;26.80;94.50
4985;DHT22;2509;49.902;8.600;2022-08-18T17:33:36;26.70;94.80
4985;DHT22;2509;49.902;8.600;2022-08-18T17:36:56;26.60;95.50
4985;DHT22;2509;49.902;8.600;2022-08-18T17:40:18;26.50;96.00
4985;DHT22;2509;49.902;8.600;2022-08-18T17:43:37;26.50;96.70
4985;DHT22;2509;49.902;8.600;2022-08-18T17:46:44;26.40;97.20
4985;DHT22;2509;49.902;8.600;2022-08-18T17:49:46;26.30;97.40
4985;DHT22;2509;49.902;8.600;2022-08-18T17:53:14;26.30;98.10
4985;DHT22;2509;49.902;8.600;2022-08-18T17:56:30;26.20;98.10
4985;DHT22;2509;49.902;8.600;2022-08-18T17:59:56;26.20;98.20
4985;DHT22;2509;49.902;8.600;2022-08-18T18:03:47;26.10;98.60
4985;DHT22;2509;49.902;8.600;2022-08-18T18:06:42;26.00;99.10
4985;DHT22;2509;49.902;8.600;2022-08-18T18:10:05;26.00;99.60
4985;DHT22;2509;49.902;8.600;2022-08-18T18:13:24;25.90;99.80
4985;DHT22;2509;49.902;8.600;2022-08-18T18:16:32;25.90;99.90
4985;DHT22;2509;49.902;8.600;2022-08-18T18:19:49;25.80;99.90
4985;DHT22;2509;49.902;8.600;2022-08-18T18:23:14;25.80;99.90
4985;DHT22;2509;49.902;8.600;2022-08-18T18:26:28;25.80;99.90
4985;DHT22;2509;49.902;8.600;2022-08-18T18:29:30;25.70;99.90
4985;DHT22;2509;49.902;8.600;2022-08-18T18:32:49;25.70;99.90
4985;DHT22;2509;49.902;8.600;2022-08-18T18:36:00;25.60;99.90
4985;DHT22;2509;49.902;8.600;2022-08-18T18:39:07;25.60;99.90
4985;DHT22;2509;49.902;8.600;2022-08-18T18:42:15;25.60;99.90
4985;DHT22;2509;49.902;8.600;2022-08-18T18:48:31;25.50;99.90
4985;DHT22;2509;49.902;8.600;2022-08-18T18:51:40;25.40;99.90
4985;DHT22;2509;49.902;8.600;2022-08-18T18:54:54;25.30;99.90
4985;DHT22;2509;49.902;8.600;2022-08-18T18:58:09;25.20;99.90
4985;DHT22;2509;49.902;8.600;2022-08-18T19:01:19;25.10;99.90
4985;DHT22;2509;49.902;8.600;2022-08-18T19:04:28;25.10;99.90
4985;DHT22;2509;49.902;8.600;2022-08-18T19:07:42;25.00;99.90
4985;DHT22;2509;49.902;8.600;2022-08-18T19:10:54;25.00;99.90
4985;DHT22;2509;49.902;8.600;2022-08-18T19:14:02;25.00;99.90
4985;DHT22;2509;49.902;8.600;2022-08-18T19:17:10;24.90;99.90
4985;DHT22;2509;49.902;8.600;2022-08-18T19:20:15;24.80;99.90
4985;DHT22;2509;49.902;8.600;2022-08-18T19:23:26;24.80;99.90
4985;DHT22;2509;49.902;8.600;2022-08-18T19:26:34;24.70;99.90
4985;DHT22;2509;49.902;8.600;2022-08-18T19:29:41;24.50;99.90
4985;DHT22;2509;49.902;8.600;2022-08-18T19:32:46;24.50;99.90
4985;DHT22;2509;49.902;8.600;2022-08-18T19:35:54;24.40;99.90
4985;DHT22;2509;49.902;8.600;2022-08-18T19:39:05;24.40;99.90
4985;DHT22;2509;49.902;8.600;2022-08-18T19:42:14;24.40;99.90
4985;DHT22;2509;49.902;8.600;2022-08-18T19:45:27;24.30;99.90
4985;DHT22;2509;49.902;8.600;2022-08-18T19:48:36;24.30;99.90
4985;DHT22;2509;49.902;8.600;2022-08-18T19:51:39;24.30;99.90
4985;DHT22;2509;49.902;8.600;2022-08-18T19:54:54;24.20;99.90
4985;DHT22;2509;49.902;8.600;2022-08-18T19:58:18;24.20;99.90
4985;DHT22;2509;49.902;8.600;2022-08-18T20:01:33;24.20;99.90
4985;DHT22;2509;49.902;8.600;2022-08-18T20:04:50;24.10;99.90
4985;DHT22;2509;49.902;8.600;2022-08-18T20:08:33;24.10;99.90
4985;DHT22;2509;49.902;8.600;2022-08-18T20:11:55;24.10;99.90
4985;DHT22;2509;49.902;8.600;2022-08-18T20:15:13;24.10;99.90
4985;DHT22;2509;49.902;8.600;2022-08-18T20:18:20;24.10;99.90
4985;DHT22;2509;49.902;8.600;2022-08-18T20:21:32;24.10;99.90
4985;DHT22;2509;49.902;8.600;2022-08-18T20:24:45;24.10;99.90
4985;DHT22;2509;49.902;8.600;2022-08-18T20:27:51;24.00;99.90
4985;DHT22;2509;49.902;8.600;2022-08-18T20:30:58;24.00;99.90